Buoy 48632

sailwx.info

Track history (hours):
 
Tides and Currents Weather Stations Pressure Air Temp Water Temp Dewpoint Dewpoint Depression Visibility Wind Speed Wind Dir Waves Ship Positions

Drifting buoy 48632

Last reported at 2018-Jun-24 03:00 UTC. Time now 2018-Jun-24 03:40 UTC.
Position N 70°33' W 151°45'.

Barometer 1018.0 mb
Water temperature 4.0 ° C

Date/timePositionNaut miles runAvg speedWind from/ knotsBaromVisibWave heightAir tempDewpointWater temp
2018-Jun-24 03:00N 70°33' W 151°45'0 0.0 1018.0 4.0
2018-Jun-24 02:00N 70°33' W 151°45'0 0.0 1018.0 4.5
2018-Jun-24 01:00N 70°33' W 151°45'0 0.0 1018.0 4.7
2018-Jun-24 00:00N 70°33' W 151°45'0 0.0 1017.9 4.5
2018-Jun-23 23:00N 70°33' W 151°45'0 0.0 1017.9 3.6
2018-Jun-23 22:00N 70°33' W 151°45'0 0.0 1018.0 3.2
2018-Jun-23 21:00N 70°33' W 151°45'0 0.0 1017.8 2.5
2018-Jun-23 20:00N 70°33' W 151°45'0 0.0 1017.7 2.6
2018-Jun-23 19:00N 70°33' W 151°45'0 0.0 1017.4 2.4
2018-Jun-23 18:00N 70°33' W 151°45'0 0.0 1017.5 1.3
2018-Jun-23 17:00N 70°33' W 151°45'0 0.0 1017.0 0.4
2018-Jun-23 16:00N 70°33' W 151°45'0 0.0 1016.7 0.2
2018-Jun-23 15:00N 70°33' W 151°45'0 0.0 1016.5 0.1
2018-Jun-23 14:00N 70°33' W 151°45'0 0.0 1016.4 0.1
2018-Jun-23 13:00N 70°33' W 151°45'0 0.0 1016.2 0.1
2018-Jun-23 12:00N 70°33' W 151°45'0 0.0 1016.0 0.1
2018-Jun-23 11:00N 70°33' W 151°45'0 0.0 1015.9 0.2
2018-Jun-23 10:00N 70°33' W 151°45'0 0.0 1015.7 0.3
2018-Jun-23 09:00N 70°33' W 151°45'0 0.0 1015.6 0.6
2018-Jun-23 08:00N 70°33' W 151°45'0 0.0 1015.5 0.9
2018-Jun-23 07:00N 70°33' W 151°45'0 0.0 1015.4 1.3
2018-Jun-23 06:00N 70°33' W 151°45'0 0.0 1015.3 1.7
2018-Jun-23 05:00N 70°33' W 151°45'0 0.0 1015.4 2.1
2018-Jun-23 04:00N 70°33' W 151°45'0 0.0 1015.5 2.5
2018-Jun-23 03:00N 70°33' W 151°45'0 0.0 1015.5 2.9
2018-Jun-23 02:00N 70°33' W 151°45'0 0.0 1015.7 3.2
2018-Jun-23 01:00N 70°33' W 151°45'0 0.0 1015.7 3.4
2018-Jun-23 00:00N 70°33' W 151°45'0 0.0 1015.7 3.4
2018-Jun-22 23:00N 70°33' W 151°45'0 0.0 1015.8 3.2
2018-Jun-22 22:00N 70°33' W 151°45'0 0.0 1016.0 3.1
2018-Jun-22 21:00N 70°33' W 151°45'0 0.0 1015.9 3.1
2018-Jun-22 20:00N 70°33' W 151°45'0 0.0 1015.9 2.3
2018-Jun-22 19:00N 70°33' W 151°45'0 0.0 1015.8 2.1
2018-Jun-22 18:00N 70°33' W 151°45'0 0.0 1015.8 1.1
2018-Jun-22 17:00N 70°33' W 151°45'0 0.0 1015.5 0.4
2018-Jun-22 16:00N 70°33' W 151°45'0 0.0 1015.5 0.2
2018-Jun-22 15:00N 70°33' W 151°45'0 0.0 1015.4 0.1
2018-Jun-22 14:00N 70°33' W 151°45'0 0.0 1015.4 0.1
2018-Jun-22 13:00N 70°33' W 151°45'0 0.0 1015.4 0.1
2018-Jun-22 12:00N 70°33' W 151°45'0 0.0 1015.3 0.2
2018-Jun-22 11:00N 70°33' W 151°45'0 0.0 1015.1 0.2
2018-Jun-22 10:00N 70°33' W 151°45'0 0.0 1015.2 0.4
2018-Jun-22 09:00N 70°33' W 151°45'0 0.0 1015.5 0.5
2018-Jun-22 08:00N 70°33' W 151°45'0 0.0 1015.4 0.6
2018-Jun-22 07:00N 70°33' W 151°45'0 0.0 1015.4 0.8
2018-Jun-22 06:00N 70°33' W 151°45'0 0.0 1015.4 0.9
2018-Jun-22 05:00N 70°33' W 151°45'0 0.0 1015.5 1.0
2018-Jun-22 04:00N 70°33' W 151°45'0 0.0 1015.6 1.0
2018-Jun-22 03:00N 70°33' W 151°45'0 0.0 1015.9 1.0
2018-Jun-22 02:00N 70°33' W 151°45'0 0.0 1016.3 1.0
2018-Jun-22 01:00N 70°33' W 151°45'0 0.0 1016.9 0.7
2018-Jun-22 00:00N 70°33' W 151°45'0 0.0 1017.2 0.5
2018-Jun-21 23:00N 70°33' W 151°45'0 0.0 1017.6 0.4
2018-Jun-21 22:00N 70°33' W 151°45'0 0.0 1018.0 0.3
2018-Jun-21 21:00N 70°33' W 151°45'0 0.0 1018.3 0.2
2018-Jun-21 20:00N 70°33' W 151°45'0 0.0 1018.9 0.2
2018-Jun-21 19:00N 70°33' W 151°45'0 0.0 1018.9 0.1
2018-Jun-21 18:00N 70°33' W 151°45'0 0.0 1019.1 0.0
2018-Jun-21 17:00N 70°33' W 151°45'0 0.0 1019.1 -0.0
2018-Jun-21 16:00N 70°33' W 151°45'0 0.0 1019.6 -0.0
2018-Jun-21 15:00N 70°33' W 151°45'0 0.0 1019.5 -0.0
2018-Jun-21 14:00N 70°33' W 151°45'0 0.0 1019.7 -0.0
2018-Jun-21 13:00N 70°33' W 151°45'0 0.0 1019.8 -0.0
2018-Jun-21 12:00N 70°33' W 151°45'0 0.0 1019.7 -0.0
2018-Jun-21 11:00N 70°33' W 151°45'0 0.0 1020.0 0.0
2018-Jun-21 10:00N 70°33' W 151°45'0 0.0 1020.2 0.0
2018-Jun-21 09:00N 70°33' W 151°45'0 0.0 1019.9 0.1
2018-Jun-21 08:00N 70°33' W 151°45'0 0.0 1019.7 0.1
2018-Jun-21 07:00N 70°33' W 151°45'0 0.0 1019.6 0.1
2018-Jun-21 06:00N 70°33' W 151°45'0 0.0 1019.3 0.1
2018-Jun-21 05:00N 70°33' W 151°45'0 0.0 1019.3 0.1
2018-Jun-21 04:00N 70°33' W 151°45'0 0.0 1019.3 0.1
2018-Jun-21 03:00N 70°33' W 151°45'0 0.0 1019.0 0.1
2018-Jun-21 02:00N 70°33' W 151°45'0 0.0 1019.2 0.1
2018-Jun-21 01:00N 70°33' W 151°45'0 0.0 1019.0 0.1
2018-Jun-21 00:00N 70°33' W 151°45'0 0.0 280 / 10 gusting 121018.9 0.817.016.9 0.1
2018-Jun-20 23:00N 70°33' W 151°45'0 0.0 1018.7 0.0
2018-Jun-20 22:00N 70°33' W 151°45'0 0.0 1018.5 -0.0
2018-Jun-20 21:00N 70°33' W 151°45'0 0.0 1018.3 -0.0
2018-Jun-20 20:00N 70°33' W 151°45'0 0.0 1018.0 -0.1
2018-Jun-20 19:00N 70°33' W 151°45'0 0.0 1018.1 -0.1
2018-Jun-20 18:00N 70°33' W 151°45'0 0.0 1017.9 -0.1
2018-Jun-20 17:00N 70°33' W 151°45'0 0.0 1017.7 -0.1
2018-Jun-20 16:00N 70°33' W 151°45'0 0.0 1017.6 -0.1
2018-Jun-20 15:00N 70°33' W 151°45'0 0.0 1017.6 -0.2
2018-Jun-20 14:00N 70°33' W 151°45'0 0.0 1017.8 -0.2
2018-Jun-20 13:00N 70°33' W 151°45'0 0.0 1017.7 -0.2
2018-Jun-20 12:00N 70°33' W 151°45'0 0.0 1017.9 -0.2
2018-Jun-20 11:00N 70°33' W 151°45'0 0.0 1017.9 -0.1
2018-Jun-20 10:00N 70°33' W 151°45'0 0.0 1017.9 -0.1
2018-Jun-20 09:00N 70°33' W 151°45'0 0.0 1017.8 -0.1
2018-Jun-20 08:00N 70°33' W 151°45'0 0.0 1017.7 -0.1
2018-Jun-20 07:00N 70°33' W 151°45'0 0.0 1017.6 -0.1
2018-Jun-20 06:00N 70°33' W 151°45'0 0.0 1017.5 -0.1
2018-Jun-20 05:00N 70°33' W 151°45'0 0.0 1017.2 -0.1
2018-Jun-20 04:00N 70°33' W 151°45'0 0.0 1017.0 -0.1
2018-Jun-20 03:00N 70°33' W 151°45'0 0.0 1016.9 -0.2
2018-Jun-20 02:00N 70°33' W 151°45'0 0.0 1016.9 -0.2
2018-Jun-20 01:00N 70°33' W 151°45'0 0.0 1016.9 -0.3
2018-Jun-20 00:00N 70°33' W 151°45'0 0.0 1016.9 -0.3
2018-Jun-19 23:00N 70°33' W 151°45'0 0.0 1016.7 -0.3
2018-Jun-19 22:00N 70°33' W 151°45'0 0.0 1016.5 -0.4
2018-Jun-19 21:00N 70°33' W 151°45'0 0.0 1016.3 -0.4
2018-Jun-19 20:00N 70°33' W 151°45'0 0.0 1016.0 -0.4
2018-Jun-19 19:00N 70°33' W 151°45'0 0.0 1015.8 -0.4
2018-Jun-19 18:00N 70°33' W 151°45'0 0.0 1015.5 -0.4
2018-Jun-19 17:00N 70°33' W 151°45'0 0.0 1015.3 -0.4
2018-Jun-19 16:00N 70°33' W 151°45'0 0.0 1014.8 -0.4
2018-Jun-19 15:00N 70°33' W 151°45'0 0.0 1014.4 -0.4
2018-Jun-19 14:00N 70°33' W 151°45'0 0.0 1014.1 -0.4
2018-Jun-19 13:00N 70°33' W 151°45'0 0.0 1014.0 -0.4
2018-Jun-19 12:00N 70°33' W 151°45'0 0.0 1013.6 -0.4
2018-Jun-19 11:00N 70°33' W 151°45'0 0.0 1013.2 -0.4
2018-Jun-19 10:00N 70°33' W 151°45'0 0.0 1012.9 -0.4
2018-Jun-19 09:00N 70°33' W 151°45'0 0.0 1012.8 -0.4
2018-Jun-19 08:00N 70°33' W 151°45'0 0.0 1012.5 -0.4
2018-Jun-19 07:00N 70°33' W 151°45'0 0.0 1011.9 -0.4
2018-Jun-19 06:00N 70°33' W 151°45'0 0.0 1011.3 -0.4
2018-Jun-19 05:00N 70°33' W 151°45'0 0.0 1010.8 -0.5
2018-Jun-19 04:00N 70°33' W 151°45'0 0.0 1010.4 -0.5
2018-Jun-19 03:00N 70°33' W 151°45'0 0.0 1010.4 -0.5
2018-Jun-19 02:00N 70°33' W 151°45'0 0.0 1010.2 -0.5
2018-Jun-19 01:00N 70°33' W 151°45'0 0.0 1010.3 -0.5
2018-Jun-19 00:00N 70°33' W 151°45'0 0.0 1010.2 -0.5
2018-Jun-18 23:00N 70°33' W 151°45'0 0.0 1010.1 -0.5
2018-Jun-18 22:00N 70°33' W 151°45'0 0.0 1009.9 -0.5
2018-Jun-18 21:00N 70°33' W 151°45'0 0.0 1009.9 -0.6
2018-Jun-18 20:00N 70°33' W 151°45'0 0.0 1009.8 -0.6
2018-Jun-18 19:00N 70°33' W 151°45'0 0.0 1009.6 -0.6
2018-Jun-18 18:00N 70°33' W 151°45'0 0.0 1009.6 -0.6
2018-Jun-18 17:00N 70°33' W 151°45'0 0.0 1009.9 -0.6
2018-Jun-18 16:00N 70°33' W 151°45'0 0.0 1010.0 -0.6
2018-Jun-18 15:00N 70°33' W 151°45'0 0.0 1009.9 -0.6
2018-Jun-18 14:00N 70°33' W 151°45'0 0.0 1010.1 -0.6
2018-Jun-18 13:00N 70°33' W 151°45'0 0.0 1010.4 -0.6
2018-Jun-18 12:00N 70°33' W 151°45'0 0.0 1010.6 -0.6
2018-Jun-18 11:00N 70°33' W 151°45'0 0.0 1010.7 -0.6
2018-Jun-18 10:00N 70°33' W 151°45'0 0.0 1011.0 -0.6
2018-Jun-18 09:00N 70°33' W 151°45'0 0.0 1011.3 -0.6
2018-Jun-18 08:00N 70°33' W 151°45'0 0.0 1011.2 -0.6
2018-Jun-18 07:00N 70°33' W 151°45'0 0.0 1011.3 -0.6
2018-Jun-18 06:00N 70°33' W 151°45'0 0.0 1011.3 -0.6
2018-Jun-18 05:00N 70°33' W 151°45'0 0.0 1011.1 -0.6
2018-Jun-18 04:00N 70°33' W 151°45'0 0.0 1011.5 -0.6
2018-Jun-18 03:00N 70°33' W 151°45'0 0.0 1011.7 -0.6
2018-Jun-18 02:00N 70°33' W 151°45'0 0.0 1012.0 -0.6
2018-Jun-18 01:00N 70°33' W 151°45'0 0.0 1012.1 -0.6
2018-Jun-18 00:00N 70°33' W 151°45'0 0.0 1012.1 -0.7
2018-Jun-17 23:00N 70°33' W 151°45'0 0.0 1012.2 -0.7
2018-Jun-17 22:00N 70°33' W 151°45'0 0.0 1012.7 -0.7
2018-Jun-17 21:00N 70°33' W 151°45'0 0.0 1012.8 -0.7
2018-Jun-17 20:00N 70°33' W 151°45'0 0.0 1012.8 -0.7
2018-Jun-17 19:00N 70°33' W 151°45'0 0.0 1012.8 -0.8
2018-Jun-17 18:00N 70°33' W 151°45'0 0.0 1013.1 -0.8
2018-Jun-17 17:00N 70°33' W 151°45'0 0.0 1013.2 -0.8
2018-Jun-17 16:00N 70°33' W 151°45'0 0.0 1013.3 -0.8
2018-Jun-17 15:00N 70°33' W 151°45'0 0.0 1013.3 -0.8
2018-Jun-17 14:00N 70°33' W 151°45'0 0.0 1013.3 -0.8
2018-Jun-17 13:00N 70°33' W 151°45'0 0.0 1013.5 -0.8
2018-Jun-17 12:00N 70°33' W 151°45'0 0.0 1013.6 -0.8
2018-Jun-17 11:00N 70°33' W 151°45'0 0.0 1013.6 -0.8
2018-Jun-17 10:00N 70°33' W 151°45'0 0.0 1013.5 -0.8
2018-Jun-17 09:00N 70°33' W 151°45'0 0.0 1013.5 -0.8
2018-Jun-17 08:00N 70°33' W 151°45'0 0.0 1013.7 -0.8
2018-Jun-17 07:00N 70°33' W 151°45'0 0.0 1013.5 -0.8
2018-Jun-17 06:00N 70°33' W 151°45'0 0.0 1013.4 -0.8
2018-Jun-17 05:00N 70°33' W 151°45'0 0.0 1013.3 -0.8
2018-Jun-17 04:00N 70°33' W 151°45'0 0.0 1013.4 -0.8
2018-Jun-17 03:00N 70°33' W 151°45'0 0.0 1013.1 -0.8
2018-Jun-17 02:00N 70°33' W 151°45'0 0.0 1012.9 -0.8
2018-Jun-17 01:00N 70°33' W 151°45'0 0.0 1012.7 -0.8
2018-Jun-17 00:00N 70°33' W 151°45'0 0.0 1012.5 -0.9
2018-Jun-16 23:00N 70°33' W 151°45'0 0.0 1012.1 -0.9
2018-Jun-16 22:00N 70°33' W 151°45'0 0.0 1011.5 -0.9
2018-Jun-16 21:00N 70°33' W 151°45'0 0.0 1010.9 -0.9
2018-Jun-16 20:00N 70°33' W 151°45'0 0.0 1010.7 -0.9
2018-Jun-16 19:00N 70°33' W 151°45'0 0.0 1010.2 -0.9
2018-Jun-16 18:00N 70°33' W 151°45'0 0.0 1009.7 -0.9
2018-Jun-16 17:00N 70°33' W 151°45'0 0.0 1009.4 -0.9
2018-Jun-16 16:00N 70°33' W 151°45'0 0.0 1009.2 -0.9
2018-Jun-16 15:00N 70°33' W 151°45'0 0.0 1009.0 -0.9
2018-Jun-16 14:00N 70°33' W 151°45'0 0.0 1008.6 -0.9
2018-Jun-16 13:00N 70°33' W 151°45'0 0.0 1008.5 -0.9
2018-Jun-16 12:00N 70°33' W 151°45'0 0.0 1008.4 -0.9
2018-Jun-16 11:00N 70°33' W 151°45'0 0.0 1008.4 -0.9
2018-Jun-16 10:00N 70°33' W 151°45'0 0.0 1008.5 -0.9
2018-Jun-16 09:00N 70°33' W 151°45'0 0.0 1008.3 -0.9
2018-Jun-16 08:00N 70°33' W 151°45'0 0.0 1008.2 -0.9
2018-Jun-16 07:00N 70°33' W 151°45'0 0.0 1008.0 -0.9
2018-Jun-16 06:00N 70°33' W 151°45'0 0.0 1007.9 -0.9
2018-Jun-16 05:00N 70°33' W 151°45'0 0.0 1007.9 -0.9
2018-Jun-16 04:00N 70°33' W 151°45'0 0.0 1008.2 -1.0
2018-Jun-16 03:00N 70°33' W 151°45'0 0.0 1008.4 -1.0
2018-Jun-16 02:00N 70°33' W 151°45'0 0.0 1008.7 -1.0
2018-Jun-16 01:00N 70°33' W 151°45'0 0.0 1009.0 -1.0
2018-Jun-16 00:00N 70°33' W 151°45'0 0.0 1009.3 -1.0
2018-Jun-15 23:00N 70°33' W 151°45'0 0.0 1009.2 -1.0
2018-Jun-15 22:00N 70°33' W 151°45'0 0.0 1009.3 -1.0
2018-Jun-15 21:00N 70°33' W 151°45'0 0.0 1009.3 -1.0
2018-Jun-15 20:00N 70°33' W 151°45'0 0.0 1009.3 -1.0
2018-Jun-15 19:00N 70°33' W 151°45'0 0.0 1009.3 -1.0
2018-Jun-15 18:00N 70°33' W 151°45'0 0.0 1009.3 -1.0
2018-Jun-15 17:00N 70°33' W 151°45'0 0.0 1009.4 -1.0
2018-Jun-15 16:00N 70°33' W 151°45'0 0.0 1009.5 -1.0
2018-Jun-15 15:00N 70°33' W 151°45'0 0.0 1009.1 -1.0
2018-Jun-15 14:00N 70°33' W 151°45'0 0.0 1009.3 -1.0
2018-Jun-15 13:00N 70°33' W 151°45'0 0.0 1009.4 -1.0
2018-Jun-15 12:00N 70°33' W 151°45'0 0.0 1009.3 -1.0
2018-Jun-15 11:00N 70°33' W 151°45'0 0.0 1009.6 -1.0
2018-Jun-15 10:00N 70°33' W 151°45'0 0.0 1009.4 -1.0
2018-Jun-15 09:00N 70°33' W 151°45'0 0.0 1009.5 -1.0
2018-Jun-15 08:00N 70°33' W 151°45'0 0.0 1009.4 -1.0
2018-Jun-15 07:00N 70°33' W 151°45'0 0.0 1009.2 -1.0
2018-Jun-15 06:00N 70°33' W 151°45'0 0.0 1009.2 -1.0
2018-Jun-15 05:00N 70°33' W 151°45'0 0.0 1008.9 -1.0
2018-Jun-15 04:00N 70°33' W 151°45'0 0.0 1008.9 -1.0
2018-Jun-15 03:00N 70°33' W 151°45'0 0.0 1008.8 -1.0
2018-Jun-15 02:00N 70°33' W 151°45'0 0.0 1008.8 -1.0
2018-Jun-15 01:00N 70°33' W 151°45'0 0.0 1008.7 -1.1
2018-Jun-15 00:00N 70°33' W 151°45'0 0.0 1008.5 -1.1
2018-Jun-14 23:00N 70°33' W 151°45'0 0.0 1008.1 -1.1
2018-Jun-14 22:00N 70°33' W 151°45'0 0.0 1007.7 -1.1
2018-Jun-14 21:00N 70°33' W 151°45'0 0.0 1007.2 -1.1
2018-Jun-14 20:00N 70°33' W 151°45'0 0.0 1007.0 -1.1
2018-Jun-14 19:00N 70°33' W 151°45'0 0.0 1006.8 -1.1
2018-Jun-14 18:00N 70°33' W 151°45'0 0.0 1006.4 -1.1
2018-Jun-14 17:00N 70°33' W 151°45'0 0.0 1005.7 -1.1
2018-Jun-14 16:00N 70°33' W 151°45'0 0.0 1005.2 -1.1
2018-Jun-14 15:00N 70°33' W 151°45'0 0.0 1004.8 -1.1
2018-Jun-14 14:00N 70°33' W 151°45'0 0.0 1004.8 -1.1
2018-Jun-14 13:00N 70°33' W 151°45'0 0.0 1004.7 -1.1
2018-Jun-14 12:00N 70°33' W 151°45'0 0.0 1004.7 -1.1
2018-Jun-14 11:00N 70°33' W 151°45'0 0.0 1004.9 -1.1
2018-Jun-14 10:00N 70°33' W 151°45'0 0.0 1005.3 -1.1
2018-Jun-14 09:00N 70°33' W 151°45'0 0.0 1005.5 -1.1
2018-Jun-14 08:00N 70°33' W 151°45'0 0.0 1005.7 -1.1
2018-Jun-14 07:00N 70°33' W 151°45'0 0.0 1006.3 -1.1
2018-Jun-14 06:00N 70°33' W 151°45'0 0.0 1006.8 -1.1
2018-Jun-14 05:00N 70°33' W 151°45'0 0.0 1007.4 -1.1
2018-Jun-14 04:00N 70°33' W 151°45'0 0.0 1007.8 -1.1
2018-Jun-14 03:00N 70°33' W 151°45'   1008.3 -1.1
Track history (hours):
 
Tides and Currents Weather Stations Pressure Air Temp Water Temp Dewpoint Dewpoint Depression Visibility Wind Speed Wind Dir Waves Ship Positions

Drifting buoy 48632

Last reported at 2018-Jun-24 03:00 UTC. Time now 2018-Jun-24 03:40 UTC.
Position N 70°33' W 151°45'.

Barometer 1018.0 mb
Water temperature 4.0 ° C

Date/timePositionNaut miles runAvg speedWind from/ knotsBaromVisibWave heightAir tempDewpointWater temp
2018-Jun-24 03:00N 70°33' W 151°45'0 0.0 1018.0 4.0
2018-Jun-24 02:00N 70°33' W 151°45'0 0.0 1018.0 4.5
2018-Jun-24 01:00N 70°33' W 151°45'0 0.0 1018.0 4.7
2018-Jun-24 00:00N 70°33' W 151°45'0 0.0 1017.9 4.5
2018-Jun-23 23:00N 70°33' W 151°45'0 0.0 1017.9 3.6
2018-Jun-23 22:00N 70°33' W 151°45'0 0.0 1018.0 3.2
2018-Jun-23 21:00N 70°33' W 151°45'0 0.0 1017.8 2.5
2018-Jun-23 20:00N 70°33' W 151°45'0 0.0 1017.7 2.6
2018-Jun-23 19:00N 70°33' W 151°45'0 0.0 1017.4 2.4
2018-Jun-23 18:00N 70°33' W 151°45'0 0.0 1017.5 1.3
2018-Jun-23 17:00N 70°33' W 151°45'0 0.0 1017.0 0.4
2018-Jun-23 16:00N 70°33' W 151°45'0 0.0 1016.7 0.2
2018-Jun-23 15:00N 70°33' W 151°45'0 0.0 1016.5 0.1
2018-Jun-23 14:00N 70°33' W 151°45'0 0.0 1016.4 0.1
2018-Jun-23 13:00N 70°33' W 151°45'0 0.0 1016.2 0.1
2018-Jun-23 12:00N 70°33' W 151°45'0 0.0 1016.0 0.1
2018-Jun-23 11:00N 70°33' W 151°45'0 0.0 1015.9 0.2
2018-Jun-23 10:00N 70°33' W 151°45'0 0.0 1015.7 0.3
2018-Jun-23 09:00N 70°33' W 151°45'0 0.0 1015.6 0.6
2018-Jun-23 08:00N 70°33' W 151°45'0 0.0 1015.5 0.9
2018-Jun-23 07:00N 70°33' W 151°45'0 0.0 1015.4 1.3
2018-Jun-23 06:00N 70°33' W 151°45'0 0.0 1015.3 1.7
2018-Jun-23 05:00N 70°33' W 151°45'0 0.0 1015.4 2.1
2018-Jun-23 04:00N 70°33' W 151°45'0 0.0 1015.5 2.5
2018-Jun-23 03:00N 70°33' W 151°45'0 0.0 1015.5 2.9
2018-Jun-23 02:00N 70°33' W 151°45'0 0.0 1015.7 3.2
2018-Jun-23 01:00N 70°33' W 151°45'0 0.0 1015.7 3.4
2018-Jun-23 00:00N 70°33' W 151°45'0 0.0 1015.7 3.4
2018-Jun-22 23:00N 70°33' W 151°45'0 0.0 1015.8 3.2
2018-Jun-22 22:00N 70°33' W 151°45'0 0.0 1016.0 3.1
2018-Jun-22 21:00N 70°33' W 151°45'0 0.0 1015.9 3.1
2018-Jun-22 20:00N 70°33' W 151°45'0 0.0 1015.9 2.3
2018-Jun-22 19:00N 70°33' W 151°45'0 0.0 1015.8 2.1
2018-Jun-22 18:00N 70°33' W 151°45'0 0.0 1015.8 1.1
2018-Jun-22 17:00N 70°33' W 151°45'0 0.0 1015.5 0.4
2018-Jun-22 16:00N 70°33' W 151°45'0 0.0 1015.5 0.2
2018-Jun-22 15:00N 70°33' W 151°45'0 0.0 1015.4 0.1
2018-Jun-22 14:00N 70°33' W 151°45'0 0.0 1015.4 0.1
2018-Jun-22 13:00N 70°33' W 151°45'0 0.0 1015.4 0.1
2018-Jun-22 12:00N 70°33' W 151°45'0 0.0 1015.3 0.2
2018-Jun-22 11:00N 70°33' W 151°45'0 0.0 1015.1 0.2
2018-Jun-22 10:00N 70°33' W 151°45'0 0.0 1015.2 0.4
2018-Jun-22 09:00N 70°33' W 151°45'0 0.0 1015.5 0.5
2018-Jun-22 08:00N 70°33' W 151°45'0 0.0 1015.4 0.6
2018-Jun-22 07:00N 70°33' W 151°45'0 0.0 1015.4 0.8
2018-Jun-22 06:00N 70°33' W 151°45'0 0.0 1015.4 0.9
2018-Jun-22 05:00N 70°33' W 151°45'0 0.0 1015.5 1.0
2018-Jun-22 04:00N 70°33' W 151°45'0 0.0 1015.6 1.0
2018-Jun-22 03:00N 70°33' W 151°45'0 0.0 1015.9 1.0
2018-Jun-22 02:00N 70°33' W 151°45'0 0.0 1016.3 1.0
2018-Jun-22 01:00N 70°33' W 151°45'0 0.0 1016.9 0.7
2018-Jun-22 00:00N 70°33' W 151°45'0 0.0 1017.2 0.5
2018-Jun-21 23:00N 70°33' W 151°45'0 0.0 1017.6 0.4
2018-Jun-21 22:00N 70°33' W 151°45'0 0.0 1018.0 0.3
2018-Jun-21 21:00N 70°33' W 151°45'0 0.0 1018.3 0.2
2018-Jun-21 20:00N 70°33' W 151°45'0 0.0 1018.9 0.2
2018-Jun-21 19:00N 70°33' W 151°45'0 0.0 1018.9 0.1
2018-Jun-21 18:00N 70°33' W 151°45'0 0.0 1019.1 0.0
2018-Jun-21 17:00N 70°33' W 151°45'0 0.0 1019.1 -0.0
2018-Jun-21 16:00N 70°33' W 151°45'0 0.0 1019.6 -0.0
2018-Jun-21 15:00N 70°33' W 151°45'0 0.0 1019.5 -0.0
2018-Jun-21 14:00N 70°33' W 151°45'0 0.0 1019.7 -0.0
2018-Jun-21 13:00N 70°33' W 151°45'0 0.0 1019.8 -0.0
2018-Jun-21 12:00N 70°33' W 151°45'0 0.0 1019.7 -0.0
2018-Jun-21 11:00N 70°33' W 151°45'0 0.0 1020.0 0.0
2018-Jun-21 10:00N 70°33' W 151°45'0 0.0 1020.2 0.0
2018-Jun-21 09:00N 70°33' W 151°45'0 0.0 1019.9 0.1
2018-Jun-21 08:00N 70°33' W 151°45'0 0.0 1019.7 0.1
2018-Jun-21 07:00N 70°33' W 151°45'0 0.0 1019.6 0.1
2018-Jun-21 06:00N 70°33' W 151°45'0 0.0 1019.3 0.1
2018-Jun-21 05:00N 70°33' W 151°45'0 0.0 1019.3 0.1
2018-Jun-21 04:00N 70°33' W 151°45'0 0.0 1019.3 0.1
2018-Jun-21 03:00N 70°33' W 151°45'0 0.0 1019.0 0.1
2018-Jun-21 02:00N 70°33' W 151°45'0 0.0 1019.2 0.1
2018-Jun-21 01:00N 70°33' W 151°45'0 0.0 1019.0 0.1
2018-Jun-21 00:00N 70°33' W 151°45'0 0.0 280 / 10 gusting 121018.9 0.817.016.9 0.1
2018-Jun-20 23:00N 70°33' W 151°45'0 0.0 1018.7 0.0
2018-Jun-20 22:00N 70°33' W 151°45'0 0.0 1018.5 -0.0
2018-Jun-20 21:00N 70°33' W 151°45'0 0.0 1018.3 -0.0
2018-Jun-20 20:00N 70°33' W 151°45'0 0.0 1018.0 -0.1
2018-Jun-20 19:00N 70°33' W 151°45'0 0.0 1018.1 -0.1
2018-Jun-20 18:00N 70°33' W 151°45'0 0.0 1017.9 -0.1
2018-Jun-20 17:00N 70°33' W 151°45'0 0.0 1017.7 -0.1
2018-Jun-20 16:00N 70°33' W 151°45'0 0.0 1017.6 -0.1
2018-Jun-20 15:00N 70°33' W 151°45'0 0.0 1017.6 -0.2
2018-Jun-20 14:00N 70°33' W 151°45'0 0.0 1017.8 -0.2
2018-Jun-20 13:00N 70°33' W 151°45'0 0.0 1017.7 -0.2
2018-Jun-20 12:00N 70°33' W 151°45'0 0.0 1017.9 -0.2
2018-Jun-20 11:00N 70°33' W 151°45'0 0.0 1017.9 -0.1
2018-Jun-20 10:00N 70°33' W 151°45'0 0.0 1017.9 -0.1
2018-Jun-20 09:00N 70°33' W 151°45'0 0.0 1017.8 -0.1
2018-Jun-20 08:00N 70°33' W 151°45'0 0.0 1017.7 -0.1
2018-Jun-20 07:00N 70°33' W 151°45'0 0.0 1017.6 -0.1
2018-Jun-20 06:00N 70°33' W 151°45'0 0.0 1017.5 -0.1
2018-Jun-20 05:00N 70°33' W 151°45'0 0.0 1017.2 -0.1
2018-Jun-20 04:00N 70°33' W 151°45'0 0.0 1017.0 -0.1
2018-Jun-20 03:00N 70°33' W 151°45'0 0.0 1016.9 -0.2
2018-Jun-20 02:00N 70°33' W 151°45'0 0.0 1016.9 -0.2
2018-Jun-20 01:00N 70°33' W 151°45'0 0.0 1016.9 -0.3
2018-Jun-20 00:00N 70°33' W 151°45'0 0.0 1016.9 -0.3
2018-Jun-19 23:00N 70°33' W 151°45'0 0.0 1016.7 -0.3
2018-Jun-19 22:00N 70°33' W 151°45'0 0.0 1016.5 -0.4
2018-Jun-19 21:00N 70°33' W 151°45'0 0.0 1016.3 -0.4
2018-Jun-19 20:00N 70°33' W 151°45'0 0.0 1016.0 -0.4
2018-Jun-19 19:00N 70°33' W 151°45'0 0.0 1015.8 -0.4
2018-Jun-19 18:00N 70°33' W 151°45'0 0.0 1015.5 -0.4
2018-Jun-19 17:00N 70°33' W 151°45'0 0.0 1015.3 -0.4
2018-Jun-19 16:00N 70°33' W 151°45'0 0.0 1014.8 -0.4
2018-Jun-19 15:00N 70°33' W 151°45'0 0.0 1014.4 -0.4
2018-Jun-19 14:00N 70°33' W 151°45'0 0.0 1014.1 -0.4
2018-Jun-19 13:00N 70°33' W 151°45'0 0.0 1014.0 -0.4
2018-Jun-19 12:00N 70°33' W 151°45'0 0.0 1013.6 -0.4
2018-Jun-19 11:00N 70°33' W 151°45'0 0.0 1013.2 -0.4
2018-Jun-19 10:00N 70°33' W 151°45'0 0.0 1012.9 -0.4
2018-Jun-19 09:00N 70°33' W 151°45'0 0.0 1012.8 -0.4
2018-Jun-19 08:00N 70°33' W 151°45'0 0.0 1012.5 -0.4
2018-Jun-19 07:00N 70°33' W 151°45'0 0.0 1011.9 -0.4
2018-Jun-19 06:00N 70°33' W 151°45'0 0.0 1011.3 -0.4
2018-Jun-19 05:00N 70°33' W 151°45'0 0.0 1010.8 -0.5
2018-Jun-19 04:00N 70°33' W 151°45'0 0.0 1010.4 -0.5
2018-Jun-19 03:00N 70°33' W 151°45'0 0.0 1010.4 -0.5
2018-Jun-19 02:00N 70°33' W 151°45'0 0.0 1010.2 -0.5
2018-Jun-19 01:00N 70°33' W 151°45'0 0.0 1010.3 -0.5
2018-Jun-19 00:00N 70°33' W 151°45'0 0.0 1010.2 -0.5
2018-Jun-18 23:00N 70°33' W 151°45'0 0.0 1010.1 -0.5
2018-Jun-18 22:00N 70°33' W 151°45'0 0.0 1009.9 -0.5
2018-Jun-18 21:00N 70°33' W 151°45'0 0.0 1009.9 -0.6
2018-Jun-18 20:00N 70°33' W 151°45'0 0.0 1009.8 -0.6
2018-Jun-18 19:00N 70°33' W 151°45'0 0.0 1009.6 -0.6
2018-Jun-18 18:00N 70°33' W 151°45'0 0.0 1009.6 -0.6
2018-Jun-18 17:00N 70°33' W 151°45'0 0.0 1009.9 -0.6
2018-Jun-18 16:00N 70°33' W 151°45'0 0.0 1010.0 -0.6
2018-Jun-18 15:00N 70°33' W 151°45'0 0.0 1009.9 -0.6
2018-Jun-18 14:00N 70°33' W 151°45'0 0.0 1010.1 -0.6
2018-Jun-18 13:00N 70°33' W 151°45'0 0.0 1010.4 -0.6
2018-Jun-18 12:00N 70°33' W 151°45'0 0.0 1010.6 -0.6
2018-Jun-18 11:00N 70°33' W 151°45'0 0.0 1010.7 -0.6
2018-Jun-18 10:00N 70°33' W 151°45'0 0.0 1011.0 -0.6
2018-Jun-18 09:00N 70°33' W 151°45'0 0.0 1011.3 -0.6
2018-Jun-18 08:00N 70°33' W 151°45'0 0.0 1011.2 -0.6
2018-Jun-18 07:00N 70°33' W 151°45'0 0.0 1011.3 -0.6
2018-Jun-18 06:00N 70°33' W 151°45'0 0.0 1011.3 -0.6
2018-Jun-18 05:00N 70°33' W 151°45'0 0.0 1011.1 -0.6
2018-Jun-18 04:00N 70°33' W 151°45'0 0.0 1011.5 -0.6
2018-Jun-18 03:00N 70°33' W 151°45'0 0.0 1011.7 -0.6
2018-Jun-18 02:00N 70°33' W 151°45'0 0.0 1012.0 -0.6
2018-Jun-18 01:00N 70°33' W 151°45'0 0.0 1012.1 -0.6
2018-Jun-18 00:00N 70°33' W 151°45'0 0.0 1012.1 -0.7
2018-Jun-17 23:00N 70°33' W 151°45'0 0.0 1012.2 -0.7
2018-Jun-17 22:00N 70°33' W 151°45'0 0.0 1012.7 -0.7
2018-Jun-17 21:00N 70°33' W 151°45'0 0.0 1012.8 -0.7
2018-Jun-17 20:00N 70°33' W 151°45'0 0.0 1012.8 -0.7
2018-Jun-17 19:00N 70°33' W 151°45'0 0.0 1012.8 -0.8
2018-Jun-17 18:00N 70°33' W 151°45'0 0.0 1013.1 -0.8
2018-Jun-17 17:00N 70°33' W 151°45'0 0.0 1013.2 -0.8
2018-Jun-17 16:00N 70°33' W 151°45'0 0.0 1013.3 -0.8
2018-Jun-17 15:00N 70°33' W 151°45'0 0.0 1013.3 -0.8
2018-Jun-17 14:00N 70°33' W 151°45'0 0.0 1013.3 -0.8
2018-Jun-17 13:00N 70°33' W 151°45'0 0.0 1013.5 -0.8
2018-Jun-17 12:00N 70°33' W 151°45'0 0.0 1013.6 -0.8
2018-Jun-17 11:00N 70°33' W 151°45'0 0.0 1013.6 -0.8
2018-Jun-17 10:00N 70°33' W 151°45'0 0.0 1013.5 -0.8
2018-Jun-17 09:00N 70°33' W 151°45'0 0.0 1013.5 -0.8
2018-Jun-17 08:00N 70°33' W 151°45'0 0.0 1013.7 -0.8
2018-Jun-17 07:00N 70°33' W 151°45'0 0.0 1013.5 -0.8
2018-Jun-17 06:00N 70°33' W 151°45'0 0.0 1013.4 -0.8
2018-Jun-17 05:00N 70°33' W 151°45'0 0.0 1013.3 -0.8
2018-Jun-17 04:00N 70°33' W 151°45'0 0.0 1013.4 -0.8
2018-Jun-17 03:00N 70°33' W 151°45'0 0.0 1013.1 -0.8
2018-Jun-17 02:00N 70°33' W 151°45'0 0.0 1012.9 -0.8
2018-Jun-17 01:00N 70°33' W 151°45'0 0.0 1012.7 -0.8
2018-Jun-17 00:00N 70°33' W 151°45'0 0.0 1012.5 -0.9
2018-Jun-16 23:00N 70°33' W 151°45'0 0.0 1012.1 -0.9
2018-Jun-16 22:00N 70°33' W 151°45'0 0.0 1011.5 -0.9
2018-Jun-16 21:00N 70°33' W 151°45'0 0.0 1010.9 -0.9
2018-Jun-16 20:00N 70°33' W 151°45'0 0.0 1010.7 -0.9
2018-Jun-16 19:00N 70°33' W 151°45'0 0.0 1010.2 -0.9
2018-Jun-16 18:00N 70°33' W 151°45'0 0.0 1009.7 -0.9
2018-Jun-16 17:00N 70°33' W 151°45'0 0.0 1009.4 -0.9
2018-Jun-16 16:00N 70°33' W 151°45'0 0.0 1009.2 -0.9
2018-Jun-16 15:00N 70°33' W 151°45'0 0.0 1009.0 -0.9
2018-Jun-16 14:00N 70°33' W 151°45'0 0.0 1008.6 -0.9
2018-Jun-16 13:00N 70°33' W 151°45'0 0.0 1008.5 -0.9
2018-Jun-16 12:00N 70°33' W 151°45'0 0.0 1008.4 -0.9
2018-Jun-16 11:00N 70°33' W 151°45'0 0.0 1008.4 -0.9
2018-Jun-16 10:00N 70°33' W 151°45'0 0.0 1008.5 -0.9
2018-Jun-16 09:00N 70°33' W 151°45'0 0.0 1008.3 -0.9
2018-Jun-16 08:00N 70°33' W 151°45'0 0.0 1008.2 -0.9
2018-Jun-16 07:00N 70°33' W 151°45'0 0.0 1008.0 -0.9
2018-Jun-16 06:00N 70°33' W 151°45'0 0.0 1007.9 -0.9
2018-Jun-16 05:00N 70°33' W 151°45'0 0.0 1007.9 -0.9
2018-Jun-16 04:00N 70°33' W 151°45'0 0.0 1008.2 -1.0
2018-Jun-16 03:00N 70°33' W 151°45'0 0.0 1008.4 -1.0
2018-Jun-16 02:00N 70°33' W 151°45'0 0.0 1008.7 -1.0
2018-Jun-16 01:00N 70°33' W 151°45'0 0.0 1009.0 -1.0
2018-Jun-16 00:00N 70°33' W 151°45'0 0.0 1009.3 -1.0
2018-Jun-15 23:00N 70°33' W 151°45'0 0.0 1009.2 -1.0
2018-Jun-15 22:00N 70°33' W 151°45'0 0.0 1009.3 -1.0
2018-Jun-15 21:00N 70°33' W 151°45'0 0.0 1009.3 -1.0
2018-Jun-15 20:00N 70°33' W 151°45'0 0.0 1009.3 -1.0
2018-Jun-15 19:00N 70°33' W 151°45'0 0.0 1009.3 -1.0
2018-Jun-15 18:00N 70°33' W 151°45'0 0.0 1009.3 -1.0
2018-Jun-15 17:00N 70°33' W 151°45'0 0.0 1009.4 -1.0
2018-Jun-15 16:00N 70°33' W 151°45'0 0.0 1009.5 -1.0
2018-Jun-15 15:00N 70°33' W 151°45'0 0.0 1009.1 -1.0
2018-Jun-15 14:00N 70°33' W 151°45'0 0.0 1009.3 -1.0
2018-Jun-15 13:00N 70°33' W 151°45'0 0.0 1009.4 -1.0
2018-Jun-15 12:00N 70°33' W 151°45'0 0.0 1009.3 -1.0
2018-Jun-15 11:00N 70°33' W 151°45'0 0.0 1009.6 -1.0
2018-Jun-15 10:00N 70°33' W 151°45'0 0.0 1009.4 -1.0
2018-Jun-15 09:00N 70°33' W 151°45'0 0.0 1009.5 -1.0
2018-Jun-15 08:00N 70°33' W 151°45'0 0.0 1009.4 -1.0
2018-Jun-15 07:00N 70°33' W 151°45'0 0.0 1009.2 -1.0
2018-Jun-15 06:00N 70°33' W 151°45'0 0.0 1009.2 -1.0
2018-Jun-15 05:00N 70°33' W 151°45'0 0.0 1008.9 -1.0
2018-Jun-15 04:00N 70°33' W 151°45'0 0.0 1008.9 -1.0
2018-Jun-15 03:00N 70°33' W 151°45'0 0.0 1008.8 -1.0
2018-Jun-15 02:00N 70°33' W 151°45'0 0.0 1008.8 -1.0
2018-Jun-15 01:00N 70°33' W 151°45'0 0.0 1008.7 -1.1
2018-Jun-15 00:00N 70°33' W 151°45'0 0.0 1008.5 -1.1
2018-Jun-14 23:00N 70°33' W 151°45'0 0.0 1008.1 -1.1
2018-Jun-14 22:00N 70°33' W 151°45'0 0.0 1007.7 -1.1
2018-Jun-14 21:00N 70°33' W 151°45'0 0.0 1007.2 -1.1
2018-Jun-14 20:00N 70°33' W 151°45'0 0.0 1007.0 -1.1
2018-Jun-14 19:00N 70°33' W 151°45'0 0.0 1006.8 -1.1
2018-Jun-14 18:00N 70°33' W 151°45'0 0.0 1006.4 -1.1
2018-Jun-14 17:00N 70°33' W 151°45'0 0.0 1005.7 -1.1
2018-Jun-14 16:00N 70°33' W 151°45'0 0.0 1005.2 -1.1
2018-Jun-14 15:00N 70°33' W 151°45'0 0.0 1004.8 -1.1
2018-Jun-14 14:00N 70°33' W 151°45'0 0.0 1004.8 -1.1
2018-Jun-14 13:00N 70°33' W 151°45'0 0.0 1004.7 -1.1
2018-Jun-14 12:00N 70°33' W 151°45'0 0.0 1004.7 -1.1
2018-Jun-14 11:00N 70°33' W 151°45'0 0.0 1004.9 -1.1
2018-Jun-14 10:00N 70°33' W 151°45'0 0.0 1005.3 -1.1
2018-Jun-14 09:00N 70°33' W 151°45'0 0.0 1005.5 -1.1
2018-Jun-14 08:00N 70°33' W 151°45'0 0.0 1005.7 -1.1
2018-Jun-14 07:00N 70°33' W 151°45'0 0.0 1006.3 -1.1
2018-Jun-14 06:00N 70°33' W 151°45'0 0.0 1006.8 -1.1
2018-Jun-14 05:00N 70°33' W 151°45'0 0.0 1007.4 -1.1
2018-Jun-14 04:00N 70°33' W 151°45'0 0.0 1007.8 -1.1
2018-Jun-14 03:00N 70°33' W 151°45'   1008.3 -1.1

Dump ship's entire track history